createdAt,value
2023-05-05T00:00:13.340Z,96444.19
2023-05-05T00:02:43.161Z,96435.34
2023-05-05T00:05:11.670Z,96435.88
2023-05-05T00:07:40.135Z,96438.13
2023-05-05T00:10:08.901Z,96437.22
2023-05-05T00:12:37.665Z,96437.19
2023-05-05T00:15:07.399Z,96427.09
2023-05-05T00:17:35.640Z,96428.56
2023-05-05T00:20:06.408Z,96428.00
2023-05-05T00:22:34.945Z,96426.78
2023-05-05T00:25:04.863Z,96440.06
2023-05-05T00:27:33.186Z,96430.84
2023-05-05T00:30:01.782Z,96431.28
2023-05-05T00:32:30.083Z,96429.84
2023-05-05T00:34:58.353Z,96429.69
2023-05-05T00:37:28.275Z,96435.88
2023-05-05T00:39:56.508Z,96431.59
2023-05-05T00:42:24.773Z,96433.19
2023-05-05T00:44:53.011Z,96431.50
2023-05-05T00:47:21.357Z,96421.25
2023-05-05T00:49:49.559Z,96429.09
2023-05-05T00:52:17.834Z,96431.69
2023-05-05T00:54:47.701Z,96431.63
2023-05-05T00:57:16.010Z,96435.44
2023-05-05T00:59:44.841Z,96439.16
2023-05-05T01:02:13.160Z,96436.91
2023-05-05T01:04:41.421Z,96425.06
2023-05-05T01:07:18.443Z,96424.22
2023-05-05T01:10:04.212Z,96426.56
2023-05-05T01:12:49.423Z,96419.59
2023-05-05T01:15:23.891Z,96420.75
2023-05-05T01:17:57.176Z,96413.06
2023-05-05T01:20:28.729Z,96416.00
2023-05-05T01:23:00.600Z,96411.03
2023-05-05T01:25:59.270Z,96410.97
2023-05-05T01:28:39.734Z,96415.09
2023-05-05T01:31:14.584Z,96407.69
2023-05-05T01:33:47.399Z,96406.34
2023-05-05T01:36:22.878Z,96410.16
2023-05-05T01:38:54.912Z,96411.91
2023-05-05T01:41:26.433Z,96408.38
2023-05-05T01:43:55.693Z,96401.34
2023-05-05T01:46:24.950Z,96406.34
2023-05-05T01:48:55.009Z,96403.09
2023-05-05T01:51:24.705Z,96412.59
2023-05-05T01:53:54.281Z,96411.06
2023-05-05T01:56:24.270Z,96412.19
2023-05-05T01:58:54.308Z,96412.50
2023-05-05T02:01:23.772Z,96415.59
2023-05-05T02:03:52.483Z,96417.19
2023-05-05T02:06:22.914Z,96419.44
2023-05-05T02:08:51.572Z,96407.94
2023-05-05T02:11:21.528Z,96413.28
2023-05-05T02:13:51.063Z,96417.06
2023-05-05T02:16:19.838Z,96419.22
2023-05-05T02:18:48.730Z,96429.50
2023-05-05T02:21:18.152Z,96425.81
2023-05-05T02:23:51.723Z,96419.94
2023-05-05T02:26:21.875Z,96416.50
2023-05-05T02:28:54.103Z,96429.75
2023-05-05T02:31:24.258Z,96421.38
2023-05-05T02:33:54.608Z,96420.50
2023-05-05T02:36:24.942Z,96424.31
2023-05-05T02:38:57.335Z,96417.06
2023-05-05T02:41:26.956Z,96421.09
2023-05-05T02:43:56.231Z,96420.09
2023-05-05T02:46:24.527Z,96435.19
2023-05-05T02:48:52.816Z,96428.03
2023-05-05T02:51:21.170Z,96417.06
2023-05-05T02:53:49.451Z,96420.19
2023-05-05T02:56:22.769Z,96422.94
2023-05-05T02:58:54.177Z,96431.25
2023-05-05T03:01:39.360Z,96429.06
2023-05-05T03:04:10.338Z,96427.97
2023-05-05T03:06:42.147Z,96421.78
2023-05-05T03:09:12.135Z,96431.59
2023-05-05T03:11:46.036Z,96423.53
2023-05-05T03:14:16.979Z,96429.84
2023-05-05T03:16:46.272Z,96431.88
2023-05-05T03:19:16.218Z,96431.16
2023-05-05T03:21:44.849Z,96424.53
2023-05-05T03:24:16.446Z,96427.97
2023-05-05T03:26:47.147Z,96426.56
2023-05-05T03:29:15.966Z,96432.81
2023-05-05T03:31:44.300Z,96438.06
2023-05-05T03:34:12.617Z,96431.81
2023-05-05T03:36:41.919Z,96434.81
2023-05-05T03:39:10.788Z,96433.28
2023-05-05T03:41:39.114Z,96434.66
2023-05-05T03:44:08.715Z,96422.47
2023-05-05T03:46:37.038Z,96425.53
2023-05-05T03:49:05.310Z,96430.28
2023-05-05T03:51:33.579Z,96432.00
2023-05-05T03:54:02.000Z,96429.50
2023-05-05T03:56:30.237Z,96434.00
2023-05-05T03:58:58.509Z,96436.94
2023-05-05T04:01:29.926Z,96438.44
2023-05-05T04:03:58.319Z,96424.47
2023-05-05T04:06:26.764Z,96427.47
2023-05-05T04:08:55.135Z,96431.41
2023-05-05T04:11:23.654Z,96430.78
2023-05-05T04:13:51.993Z,96429.78
2023-05-05T04:16:20.754Z,96433.44
2023-05-05T04:18:50.655Z,96428.09
2023-05-05T04:21:18.891Z,96428.22
2023-05-05T04:23:47.105Z,96418.78
2023-05-05T04:26:15.381Z,96419.69
2023-05-05T04:28:43.614Z,96417.88
2023-05-05T04:31:11.881Z,96426.28
2023-05-05T04:33:40.260Z,96433.28
2023-05-05T04:36:10.353Z,96432.81
2023-05-05T04:38:38.631Z,96430.84
2023-05-05T04:41:07.432Z,96429.16
2023-05-05T04:43:35.838Z,96429.50
2023-05-05T04:46:04.254Z,96427.56
2023-05-05T04:51:05.628Z,96451.03
2023-05-05T04:53:35.293Z,96442.38
2023-05-05T04:56:03.634Z,96434.88
2023-05-05T04:58:32.168Z,96434.03
2023-05-05T05:01:00.474Z,96438.50
2023-05-05T05:03:28.747Z,96433.06
2023-05-05T05:05:57.021Z,96427.34
2023-05-05T05:08:25.325Z,96433.16
2023-05-05T05:10:54.912Z,96442.41
2023-05-05T05:13:23.232Z,96439.75
2023-05-05T05:15:51.578Z,96448.06
2023-05-05T05:18:19.817Z,96434.41
2023-05-05T05:20:48.079Z,96438.88
2023-05-05T05:23:16.356Z,96437.63
2023-05-05T05:25:44.900Z,96442.94
2023-05-05T05:28:14.570Z,96431.66
2023-05-05T05:30:42.818Z,96440.56
2023-05-05T05:33:11.216Z,96439.28
2023-05-05T05:35:39.636Z,96439.75
2023-05-05T05:38:08.023Z,96442.91
2023-05-05T05:40:36.424Z,96442.31
2023-05-05T05:43:05.080Z,96448.72
2023-05-05T05:45:34.715Z,96438.56
2023-05-05T05:48:02.977Z,96440.41
2023-05-05T05:50:31.335Z,96439.19
2023-05-05T05:52:59.650Z,96446.59
2023-05-05T05:55:27.864Z,96457.84
2023-05-05T05:57:56.156Z,96454.34
2023-05-05T06:00:24.912Z,96457.25
2023-05-05T06:02:54.633Z,96458.75
2023-05-05T06:05:22.900Z,96460.19
2023-05-05T06:07:51.164Z,96453.72
2023-05-05T06:10:27.955Z,96446.97
2023-05-05T06:12:56.754Z,96447.31
2023-05-05T06:15:25.858Z,96449.88
2023-05-05T06:17:55.551Z,96448.31
2023-05-05T06:20:23.830Z,96449.00
2023-05-05T06:22:52.099Z,96453.47
2023-05-05T06:25:20.515Z,96454.47
2023-05-05T06:27:48.900Z,96455.25
2023-05-05T06:30:17.858Z,96454.63
2023-05-05T06:32:46.272Z,96458.41
2023-05-05T06:35:16.101Z,96459.56
2023-05-05T06:37:45.139Z,96456.16
2023-05-05T06:40:14.053Z,96456.34
2023-05-05T06:42:42.447Z,96455.69
2023-05-05T06:45:11.565Z,96465.50
2023-05-05T06:47:39.955Z,96462.91
2023-05-05T06:50:10.265Z,96463.97
2023-05-05T06:55:26.181Z,96466.28
2023-05-05T06:57:54.518Z,96452.09
2023-05-05T07:00:23.477Z,96463.91
2023-05-05T07:02:51.781Z,96472.59
2023-05-05T07:05:20.342Z,96470.47
2023-05-05T07:07:53.734Z,96468.44
2023-05-05T07:10:22.752Z,96472.66
2023-05-05T07:12:52.265Z,96464.72
2023-05-05T07:15:28.845Z,96464.84
2023-05-05T07:17:58.075Z,96467.50
2023-05-05T07:20:27.040Z,96469.50
2023-05-05T07:22:56.731Z,96472.91
2023-05-05T07:25:24.934Z,96460.00
2023-05-05T07:27:53.196Z,96466.34
2023-05-05T07:30:21.684Z,96458.09
2023-05-05T07:32:51.290Z,96465.25
2023-05-05T07:35:19.710Z,96467.19
2023-05-05T07:37:48.216Z,96457.16
2023-05-05T07:40:17.865Z,96467.38
2023-05-05T07:42:47.400Z,96462.00
2023-05-05T07:45:15.713Z,96459.84
2023-05-05T07:47:44.260Z,96457.31
2023-05-05T07:50:12.598Z,96464.94
2023-05-05T07:55:12.017Z,96456.09
2023-05-05T07:57:41.630Z,96457.66
2023-05-05T08:00:11.483Z,96455.25
2023-05-05T08:02:40.319Z,96457.59
2023-05-05T08:05:09.724Z,96455.66
2023-05-05T08:07:41.311Z,96455.47
2023-05-05T08:10:11.899Z,96451.59
2023-05-05T08:12:41.685Z,96461.19
2023-05-05T08:15:11.194Z,96456.41
2023-05-05T08:17:47.848Z,96458.09
2023-05-05T08:20:16.362Z,96449.19
2023-05-05T08:22:45.097Z,96455.56
2023-05-05T08:25:13.943Z,96447.47
2023-05-05T08:27:44.099Z,96445.66
2023-05-05T08:30:13.301Z,96456.69
2023-05-05T08:32:41.684Z,96450.84
2023-05-05T08:35:10.903Z,96444.53
2023-05-05T08:37:39.405Z,96452.50
2023-05-05T08:40:08.950Z,96441.66
2023-05-05T08:42:39.010Z,96440.94
2023-05-05T08:45:11.079Z,96436.81
2023-05-05T08:47:40.457Z,96441.88
2023-05-05T08:50:11.638Z,96440.06
2023-05-05T08:52:41.379Z,96439.75
2023-05-05T08:55:15.922Z,96441.00
2023-05-05T08:57:47.683Z,96438.53
2023-05-05T09:00:19.647Z,96442.06
2023-05-05T09:02:55.517Z,96446.16
2023-05-05T09:05:27.411Z,96446.47
2023-05-05T09:07:55.910Z,96439.94
2023-05-05T09:10:25.728Z,96450.22
2023-05-05T09:12:54.266Z,96445.59
2023-05-05T09:15:24.220Z,96442.41
2023-05-05T09:17:52.497Z,96435.84
2023-05-05T09:20:20.870Z,96438.34
2023-05-05T09:22:49.318Z,96445.94
2023-05-05T09:25:18.904Z,96443.22
2023-05-05T09:27:48.770Z,96435.63
2023-05-05T09:30:18.603Z,96436.34
2023-05-05T09:32:49.941Z,96440.50
2023-05-05T09:35:18.652Z,96436.13
2023-05-05T09:37:47.080Z,96431.28
2023-05-05T09:40:16.754Z,96432.88
2023-05-05T09:42:45.901Z,96431.13
2023-05-05T09:45:27.588Z,96436.06
2023-05-05T09:48:00.352Z,96423.09
2023-05-05T09:50:31.175Z,96429.78
2023-05-05T09:53:00.769Z,96426.63
2023-05-05T09:55:30.861Z,96426.56
2023-05-05T09:58:06.342Z,96428.13
2023-05-05T10:00:41.084Z,96422.25
2023-05-05T10:03:10.774Z,96425.31
2023-05-05T10:05:48.676Z,96425.50
2023-05-05T10:08:17.898Z,96425.94
2023-05-05T10:10:52.400Z,96418.59
2023-05-05T10:13:21.906Z,96421.06
2023-05-05T10:15:51.864Z,96420.25
2023-05-05T10:18:23.661Z,96416.03
2023-05-05T10:20:58.379Z,96416.75
2023-05-05T10:23:34.391Z,96412.13
2023-05-05T10:26:04.514Z,96416.50
2023-05-05T10:28:34.511Z,96410.69
2023-05-05T10:31:10.110Z,96412.53
2023-05-05T10:33:55.931Z,96413.75
2023-05-05T10:36:25.749Z,96403.16
2023-05-05T10:38:58.143Z,96410.91
2023-05-05T10:41:27.235Z,96403.81
2023-05-05T10:43:57.600Z,96399.06
2023-05-05T10:46:26.152Z,96402.66
2023-05-05T10:49:01.272Z,96395.84
2023-05-05T10:54:29.585Z,96396.50
2023-05-05T10:57:01.229Z,96395.38
2023-05-05T10:59:43.002Z,96390.84
2023-05-05T11:02:21.901Z,96379.94
2023-05-05T11:05:12.235Z,96385.66
2023-05-05T11:07:40.348Z,96383.69
2023-05-05T11:10:10.021Z,96372.94
2023-05-05T11:13:15.764Z,96364.44
2023-05-05T11:15:44.012Z,96359.00
2023-05-05T11:18:35.848Z,96364.59
2023-05-05T11:21:18.488Z,96355.63
2023-05-05T11:23:51.481Z,96348.97
2023-05-05T11:26:36.196Z,96350.94
2023-05-05T11:29:06.403Z,96341.94
2023-05-05T11:31:34.580Z,96347.88
2023-05-05T11:34:24.835Z,96346.28
2023-05-05T11:36:54.286Z,96341.38
2023-05-05T11:39:25.081Z,96338.25
2023-05-05T11:42:10.381Z,96329.75
2023-05-05T11:44:39.240Z,96333.91
2023-05-05T11:47:29.806Z,96330.09
2023-05-05T11:49:58.317Z,96318.06
2023-05-05T11:52:31.279Z,96330.72
2023-05-05T11:55:03.740Z,96322.25
2023-05-05T11:57:32.080Z,96325.09
2023-05-05T12:00:02.202Z,96322.75
2023-05-05T12:02:31.423Z,96321.59
2023-05-05T12:05:00.718Z,96329.16
2023-05-05T12:07:32.071Z,96328.28
2023-05-05T12:10:01.006Z,96317.63
2023-05-05T12:12:36.979Z,96316.31
2023-05-05T12:15:06.558Z,96314.44
2023-05-05T12:17:42.995Z,96312.28
2023-05-05T12:20:12.927Z,96306.63
2023-05-05T12:22:43.730Z,96312.44
2023-05-05T12:25:12.229Z,96303.88
2023-05-05T12:27:41.286Z,96303.16
2023-05-05T12:30:14.610Z,96299.66
2023-05-05T12:32:43.292Z,96300.00
2023-05-05T12:35:13.853Z,96299.50
2023-05-05T12:37:43.677Z,96289.25
2023-05-05T12:40:45.719Z,96292.72
2023-05-05T12:43:28.152Z,96288.50
2023-05-05T12:46:10.230Z,96284.47
2023-05-05T12:48:40.248Z,96282.50
2023-05-05T12:51:13.306Z,96281.38
2023-05-05T12:53:43.133Z,96277.56
2023-05-05T12:56:30.065Z,96270.97
2023-05-05T12:58:58.537Z,96263.47
2023-05-05T13:01:26.868Z,96269.25
2023-05-05T13:04:11.364Z,96266.34
2023-05-05T13:06:40.436Z,96258.19
2023-05-05T13:09:11.056Z,96256.03
2023-05-05T13:11:39.883Z,96256.38
2023-05-05T13:14:08.550Z,96245.97
2023-05-05T13:16:36.930Z,96248.47
2023-05-05T13:19:05.249Z,96247.66
2023-05-05T13:21:33.731Z,96236.97
2023-05-05T13:24:19.749Z,96239.63
2023-05-05T13:26:52.769Z,96235.66
2023-05-05T13:29:21.161Z,96228.44
2023-05-05T13:31:49.979Z,96222.56
2023-05-05T13:34:18.611Z,96214.00
2023-05-05T13:36:46.798Z,96222.41
2023-05-05T13:39:15.111Z,96219.53
2023-05-05T13:41:44.708Z,96217.59
2023-05-05T13:44:15.647Z,96214.81
2023-05-05T13:46:43.974Z,96206.34
2023-05-05T13:49:12.283Z,96206.00
2023-05-05T13:51:40.537Z,96206.47
2023-05-05T13:54:09.600Z,96192.53
2023-05-05T13:56:37.859Z,96185.56
2023-05-05T13:59:06.166Z,96185.41
2023-05-05T14:01:35.909Z,96189.69
2023-05-05T14:04:05.756Z,96175.97
2023-05-05T14:06:34.086Z,96171.94
2023-05-05T14:09:05.602Z,96174.22
2023-05-05T14:11:33.912Z,96160.41
2023-05-05T14:14:02.767Z,96170.25
2023-05-05T14:16:31.298Z,96159.75
2023-05-05T14:19:01.608Z,96163.19
2023-05-05T14:21:29.838Z,96164.69
2023-05-05T14:23:58.110Z,96165.00
2023-05-05T14:26:27.266Z,96168.28
2023-05-05T14:28:55.854Z,96157.28
2023-05-05T14:31:24.175Z,96155.47
2023-05-05T14:33:53.437Z,96156.94
2023-05-05T14:36:23.625Z,96163.78
2023-05-05T14:38:52.062Z,96156.50
2023-05-05T14:41:20.545Z,96158.16
2023-05-05T14:43:48.782Z,96151.34
2023-05-05T14:46:17.117Z,96152.13
2023-05-05T14:48:46.346Z,96155.41
2023-05-05T14:51:15.288Z,96151.09
2023-05-05T14:53:44.966Z,96155.16
2023-05-05T14:56:13.170Z,96150.72
2023-05-05T14:58:41.448Z,96141.25
2023-05-05T15:01:09.828Z,96145.06
2023-05-05T15:03:38.262Z,96141.25
2023-05-05T15:06:06.719Z,96142.72
2023-05-05T15:08:35.061Z,96133.25
2023-05-05T15:11:04.787Z,96132.66
2023-05-05T15:13:33.007Z,96134.09
2023-05-05T15:16:01.432Z,96132.63
2023-05-05T15:18:29.747Z,96137.88
2023-05-05T15:20:58.170Z,96124.28
2023-05-05T15:23:26.477Z,96126.63
2023-05-05T15:25:54.927Z,96138.22
2023-05-05T15:28:24.522Z,96137.38
2023-05-05T15:30:52.853Z,96130.69
2023-05-05T15:33:21.099Z,96130.00
2023-05-05T15:35:49.400Z,96122.97
2023-05-05T15:38:17.674Z,96128.09
2023-05-05T15:40:48.894Z,96123.44
2023-05-05T15:43:18.383Z,96119.84
2023-05-05T15:45:47.996Z,96121.06
2023-05-05T15:48:16.259Z,96110.00
2023-05-05T15:50:44.577Z,96111.13
2023-05-05T15:53:12.851Z,96118.09
2023-05-05T15:55:41.616Z,96098.44
2023-05-05T15:58:09.954Z,96109.69
2023-05-05T16:00:38.500Z,96112.03
2023-05-05T16:03:08.473Z,96102.50
2023-05-05T16:05:36.732Z,96112.28
2023-05-05T16:08:09.697Z,96100.00
2023-05-05T16:10:38.123Z,96110.78
2023-05-05T16:13:06.401Z,96102.41
2023-05-05T16:15:35.611Z,96103.19
2023-05-05T16:18:03.963Z,96103.94
2023-05-05T16:20:33.746Z,96100.22
2023-05-05T16:23:02.052Z,96102.19
2023-05-05T16:25:30.345Z,96103.53
2023-05-05T16:28:00.184Z,96101.16
2023-05-05T16:30:29.274Z,96096.31
2023-05-05T16:32:57.593Z,96086.88
2023-05-05T16:35:25.856Z,96076.22
2023-05-05T16:37:55.429Z,96086.31
2023-05-05T16:40:23.817Z,96078.56
2023-05-05T16:42:52.267Z,96080.78
2023-05-05T16:45:20.538Z,96085.53
2023-05-05T16:47:48.848Z,96082.22
2023-05-05T16:50:17.781Z,96083.13
2023-05-05T16:52:46.058Z,96081.91
2023-05-05T16:55:16.025Z,96087.88
2023-05-05T16:57:44.305Z,96084.97
2023-05-05T17:00:13.877Z,96085.53
2023-05-05T17:02:42.225Z,96084.09
2023-05-05T17:05:11.107Z,96075.72
2023-05-05T17:07:39.545Z,96065.28
2023-05-05T17:10:09.203Z,96076.56
2023-05-05T17:12:38.844Z,96072.59
2023-05-05T17:15:09.701Z,96075.19
2023-05-05T17:17:38.260Z,96060.31
2023-05-05T17:20:07.914Z,96056.16
2023-05-05T17:22:36.260Z,96053.25
2023-05-05T17:25:05.102Z,96059.91
2023-05-05T17:27:33.359Z,96053.56
2023-05-05T17:30:03.094Z,96066.91
2023-05-05T17:32:35.996Z,96058.84
2023-05-05T17:35:05.056Z,96067.59
2023-05-05T17:37:33.694Z,96056.94
2023-05-05T17:40:01.919Z,96070.84
2023-05-05T17:42:33.603Z,96069.94
2023-05-05T17:45:03.366Z,96062.97
2023-05-05T17:47:31.993Z,96053.78
2023-05-05T17:50:00.338Z,96058.09
2023-05-05T17:52:28.617Z,96056.50
2023-05-05T17:54:56.954Z,96058.34
2023-05-05T17:57:25.241Z,96060.63
2023-05-05T17:59:53.698Z,96062.94
2023-05-05T18:02:24.229Z,96052.84
2023-05-05T18:04:52.376Z,96046.59
2023-05-05T18:07:20.514Z,96041.38
2023-05-05T18:09:48.769Z,96031.53
2023-05-05T18:12:17.408Z,96025.06
2023-05-05T18:14:45.660Z,96020.59
2023-05-05T18:17:13.908Z,96029.97
2023-05-05T18:19:46.577Z,96028.13
2023-05-05T18:22:16.457Z,96020.25
2023-05-05T18:24:44.827Z,96014.66
2023-05-05T18:27:13.282Z,96045.56
2023-05-05T18:29:41.646Z,96060.84
2023-05-05T18:32:09.954Z,96065.94
2023-05-05T18:34:38.191Z,96067.09
2023-05-05T18:37:07.976Z,96068.91
2023-05-05T18:39:36.390Z,96077.56
2023-05-05T18:42:05.386Z,96080.59
2023-05-05T18:44:34.783Z,96100.75
2023-05-05T18:47:03.180Z,96099.19
2023-05-05T18:49:31.815Z,96107.06
2023-05-05T18:52:00.167Z,96116.25
2023-05-05T18:54:29.970Z,96109.41
2023-05-05T18:56:59.274Z,96118.41
2023-05-05T18:59:27.505Z,96123.03
2023-05-05T19:01:55.772Z,96147.28
2023-05-05T19:04:30.808Z,96155.41
2023-05-05T19:06:59.927Z,96165.13
2023-05-05T19:09:29.654Z,96195.47
2023-05-05T19:11:57.902Z,96299.09
2023-05-05T19:14:26.194Z,96329.66
2023-05-05T19:16:55.884Z,96342.44
2023-05-05T19:19:24.370Z,96314.03
2023-05-05T19:21:52.704Z,96338.81
2023-05-05T19:24:21.008Z,96358.97
2023-05-05T19:26:50.740Z,96370.44
2023-05-05T19:29:18.977Z,96371.13
2023-05-05T19:31:47.249Z,96379.53
2023-05-05T19:34:15.573Z,96381.63
2023-05-05T19:40:24.615Z,96385.50
2023-05-05T19:42:54.166Z,96364.25
2023-05-05T19:45:22.486Z,96352.44
2023-05-05T19:47:50.801Z,96356.59
2023-05-05T19:50:19.204Z,96366.34
2023-05-05T19:52:47.429Z,96385.75
2023-05-05T19:55:15.839Z,96389.56
2023-05-05T19:57:44.180Z,96386.53
2023-05-05T20:00:14.881Z,96367.31
2023-05-05T20:02:45.229Z,96367.25
2023-05-05T20:05:17.719Z,96358.25
2023-05-05T20:07:46.866Z,96351.44
2023-05-05T20:10:15.834Z,96335.88
2023-05-05T20:12:49.150Z,96337.22
2023-05-05T20:15:20.861Z,96335.81
2023-05-05T20:17:49.699Z,96344.09
2023-05-05T20:20:20.092Z,96340.66
2023-05-05T20:23:37.672Z,96349.81
2023-05-05T20:26:06.358Z,96367.75
2023-05-05T20:28:34.550Z,96371.06
2023-05-05T20:31:04.141Z,96381.78
2023-05-05T20:33:32.403Z,96382.63
2023-05-05T20:36:00.670Z,96394.44
2023-05-05T20:38:28.958Z,96403.13
2023-05-05T20:40:57.176Z,96403.22
2023-05-05T20:43:25.639Z,96409.78
2023-05-05T20:45:53.870Z,96407.81
2023-05-05T20:48:23.436Z,96409.44
2023-05-05T20:50:52.200Z,96411.88
2023-05-05T20:53:20.971Z,96403.97
2023-05-05T20:55:49.856Z,96402.16
2023-05-05T20:58:18.190Z,96408.19
2023-05-05T21:00:46.418Z,96406.53
2023-05-05T21:03:14.706Z,96396.97
2023-05-05T21:05:44.702Z,96406.53
2023-05-05T21:08:12.865Z,96384.31
2023-05-05T21:10:41.179Z,96385.16
2023-05-05T21:13:09.477Z,96379.81
2023-05-05T21:15:38.078Z,96378.78
2023-05-05T21:18:07.511Z,96379.16
2023-05-05T21:20:35.832Z,96376.66
2023-05-05T21:23:05.441Z,96368.13
2023-05-05T21:25:33.671Z,96376.38
2023-05-05T21:28:01.883Z,96376.56
2023-05-05T21:30:30.262Z,96364.94
2023-05-05T21:32:58.505Z,96374.88
2023-05-05T21:35:26.785Z,96375.44
2023-05-05T21:37:55.012Z,96381.97
2023-05-05T21:40:24.593Z,96373.84
2023-05-05T21:42:52.773Z,96380.31
2023-05-05T21:45:21.609Z,96378.13
2023-05-05T21:47:49.853Z,96372.06
2023-05-05T21:50:18.097Z,96372.75
2023-05-05T21:52:46.259Z,96373.53
2023-05-05T21:55:14.443Z,96371.91
2023-05-05T21:57:44.465Z,96373.50
2023-05-05T22:00:16.684Z,96374.25
2023-05-05T22:02:45.482Z,96361.94
2023-05-05T22:05:13.949Z,96365.22
2023-05-05T22:07:42.201Z,96361.84
2023-05-05T22:10:11.406Z,96363.63
2023-05-05T22:12:39.972Z,96372.75
2023-05-05T22:15:10.992Z,96366.91
2023-05-05T22:17:39.920Z,96366.63
2023-05-05T22:20:10.861Z,96367.53
2023-05-05T22:22:39.827Z,96368.72
2023-05-05T22:25:09.656Z,96375.44
2023-05-05T22:27:38.159Z,96374.50
2023-05-05T22:30:08.282Z,96377.47
2023-05-05T22:32:38.594Z,96385.44
2023-05-05T22:35:08.127Z,96382.56
2023-05-05T22:37:36.621Z,96384.47
2023-05-05T22:40:05.860Z,96381.28
2023-05-05T22:42:34.109Z,96387.00
2023-05-05T22:45:02.414Z,96378.25
2023-05-05T22:47:30.989Z,96374.50
2023-05-05T22:50:00.874Z,96380.50
2023-05-05T22:52:29.234Z,96378.84
2023-05-05T22:54:58.074Z,96368.38
2023-05-05T22:57:26.353Z,96364.50
2023-05-05T22:59:54.639Z,96364.56
2023-05-05T23:02:22.914Z,96369.91
2023-05-05T23:04:52.606Z,96373.19
2023-05-05T23:07:22.361Z,96366.38
2023-05-05T23:09:50.647Z,96364.91
2023-05-05T23:12:19.105Z,96366.31
2023-05-05T23:14:47.350Z,96370.16
2023-05-05T23:17:15.654Z,96368.91
2023-05-05T23:19:43.851Z,96368.72
2023-05-05T23:22:12.073Z,96368.22
2023-05-05T23:24:41.705Z,96368.09
2023-05-05T23:27:10.032Z,96364.59
2023-05-05T23:29:38.329Z,96365.88
2023-05-05T23:32:07.121Z,96366.38
2023-05-05T23:34:35.349Z,96375.69
2023-05-05T23:37:05.869Z,96369.59
2023-05-05T23:39:35.052Z,96365.03
2023-05-05T23:42:04.709Z,96362.22
2023-05-05T23:44:32.942Z,96353.75
2023-05-05T23:47:01.177Z,96362.22
2023-05-05T23:49:29.405Z,96360.44
2023-05-05T23:51:58.640Z,96359.31
2023-05-05T23:54:27.269Z,96361.38
2023-05-05T23:56:55.504Z,96358.13
2023-05-05T23:59:25.911Z,96361.41
